sensor_id;sensor_type;location;lat;lon;timestamp;P1;durP1;ratioP1;P2;durP2;ratioP2
25922;SDS011;13725;51.170;4.442;2023-04-10T00:01:10;15.88;;;10.35;;
25922;SDS011;13725;51.170;4.442;2023-04-10T00:03:35;18.08;;;10.30;;
25922;SDS011;13725;51.170;4.442;2023-04-10T00:06:01;18.17;;;10.38;;
25922;SDS011;13725;51.170;4.442;2023-04-10T00:08:27;18.70;;;9.77;;
25922;SDS011;13725;51.170;4.442;2023-04-10T00:10:53;16.58;;;10.18;;
25922;SDS011;13725;51.170;4.442;2023-04-10T00:13:19;18.40;;;10.32;;
25922;SDS011;13725;51.170;4.442;2023-04-10T00:15:45;17.25;;;10.18;;
25922;SDS011;13725;51.170;4.442;2023-04-10T00:18:10;17.65;;;10.93;;
25922;SDS011;13725;51.170;4.442;2023-04-10T00:20:36;20.80;;;10.52;;
25922;SDS011;13725;51.170;4.442;2023-04-10T00:23:02;17.02;;;10.18;;
25922;SDS011;13725;51.170;4.442;2023-04-10T00:25:28;16.83;;;9.35;;
25922;SDS011;13725;51.170;4.442;2023-04-10T00:27:54;18.10;;;9.75;;
25922;SDS011;13725;51.170;4.442;2023-04-10T00:30:20;18.48;;;10.63;;
25922;SDS011;13725;51.170;4.442;2023-04-10T00:32:45;19.17;;;10.77;;
25922;SDS011;13725;51.170;4.442;2023-04-10T00:35:11;18.20;;;9.80;;
25922;SDS011;13725;51.170;4.442;2023-04-10T00:37:37;16.58;;;9.57;;
25922;SDS011;13725;51.170;4.442;2023-04-10T00:40:03;16.17;;;9.63;;
25922;SDS011;13725;51.170;4.442;2023-04-10T00:42:30;16.98;;;9.77;;
25922;SDS011;13725;51.170;4.442;2023-04-10T00:44:56;15.85;;;10.20;;
25922;SDS011;13725;51.170;4.442;2023-04-10T00:47:23;14.15;;;9.10;;
25922;SDS011;13725;51.170;4.442;2023-04-10T00:49:49;15.93;;;8.45;;
25922;SDS011;13725;51.170;4.442;2023-04-10T00:52:15;17.35;;;9.65;;
25922;SDS011;13725;51.170;4.442;2023-04-10T00:54:41;14.80;;;8.93;;
25922;SDS011;13725;51.170;4.442;2023-04-10T00:57:07;15.23;;;9.32;;
25922;SDS011;13725;51.170;4.442;2023-04-10T00:59:33;13.32;;;8.00;;
25922;SDS011;13725;51.170;4.442;2023-04-10T01:02:00;17.27;;;8.30;;
25922;SDS011;13725;51.170;4.442;2023-04-10T01:04:25;14.65;;;7.90;;
25922;SDS011;13725;51.170;4.442;2023-04-10T01:09:46;15.68;;;8.32;;
25922;SDS011;13725;51.170;4.442;2023-04-10T01:20:03;15.98;;;8.07;;
25922;SDS011;13725;51.170;4.442;2023-04-10T01:22:34;13.02;;;8.43;;
25922;SDS011;13725;51.170;4.442;2023-04-10T01:25:18;11.90;;;7.70;;
25922;SDS011;13725;51.170;4.442;2023-04-10T01:30:33;11.88;;;7.30;;
25922;SDS011;13725;51.170;4.442;2023-04-10T01:33:00;11.32;;;7.38;;
25922;SDS011;13725;51.170;4.442;2023-04-10T01:35:28;13.30;;;7.60;;
25922;SDS011;13725;51.170;4.442;2023-04-10T01:37:55;13.30;;;6.85;;
25922;SDS011;13725;51.170;4.442;2023-04-10T01:40:23;12.07;;;7.22;;
25922;SDS011;13725;51.170;4.442;2023-04-10T01:42:52;10.98;;;7.25;;
25922;SDS011;13725;51.170;4.442;2023-04-10T01:45:26;12.98;;;7.68;;
25922;SDS011;13725;51.170;4.442;2023-04-10T01:47:53;11.05;;;7.25;;
25922;SDS011;13725;51.170;4.442;2023-04-10T01:50:20;11.50;;;6.88;;
25922;SDS011;13725;51.170;4.442;2023-04-10T01:52:52;14.23;;;6.80;;
25922;SDS011;13725;51.170;4.442;2023-04-10T01:55:21;10.75;;;6.32;;
25922;SDS011;13725;51.170;4.442;2023-04-10T01:58:00;11.45;;;6.75;;
25922;SDS011;13725;51.170;4.442;2023-04-10T02:00:27;10.52;;;6.80;;
25922;SDS011;13725;51.170;4.442;2023-04-10T02:02:53;11.45;;;7.00;;
25922;SDS011;13725;51.170;4.442;2023-04-10T02:05:19;11.32;;;6.75;;
25922;SDS011;13725;51.170;4.442;2023-04-10T02:07:53;11.00;;;6.00;;
25922;SDS011;13725;51.170;4.442;2023-04-10T02:10:27;9.65;;;6.40;;
25922;SDS011;13725;51.170;4.442;2023-04-10T02:12:58;12.80;;;6.30;;
25922;SDS011;13725;51.170;4.442;2023-04-10T02:15:29;8.88;;;6.38;;
25922;SDS011;13725;51.170;4.442;2023-04-10T02:17:58;11.27;;;6.72;;
25922;SDS011;13725;51.170;4.442;2023-04-10T02:20:29;11.32;;;6.95;;
25922;SDS011;13725;51.170;4.442;2023-04-10T02:22:56;11.02;;;6.32;;
25922;SDS011;13725;51.170;4.442;2023-04-10T02:25:27;10.50;;;6.30;;
25922;SDS011;13725;51.170;4.442;2023-04-10T02:27:55;10.68;;;6.80;;
25922;SDS011;13725;51.170;4.442;2023-04-10T02:30:21;9.73;;;6.30;;
25922;SDS011;13725;51.170;4.442;2023-04-10T02:32:49;9.30;;;6.10;;
25922;SDS011;13725;51.170;4.442;2023-04-10T02:35:16;9.30;;;5.63;;
25922;SDS011;13725;51.170;4.442;2023-04-10T02:37:42;11.48;;;6.38;;
25922;SDS011;13725;51.170;4.442;2023-04-10T02:40:08;9.60;;;6.25;;
25922;SDS011;13725;51.170;4.442;2023-04-10T02:42:48;14.50;;;6.65;;
25922;SDS011;13725;51.170;4.442;2023-04-10T02:45:14;10.07;;;6.38;;
25922;SDS011;13725;51.170;4.442;2023-04-10T02:47:41;14.43;;;6.57;;
25922;SDS011;13725;51.170;4.442;2023-04-10T02:50:07;8.35;;;5.80;;
25922;SDS011;13725;51.170;4.442;2023-04-10T02:52:35;9.10;;;6.00;;
25922;SDS011;13725;51.170;4.442;2023-04-10T02:55:01;8.27;;;5.38;;
25922;SDS011;13725;51.170;4.442;2023-04-10T02:57:33;9.68;;;6.20;;
25922;SDS011;13725;51.170;4.442;2023-04-10T02:59:59;9.35;;;6.25;;
25922;SDS011;13725;51.170;4.442;2023-04-10T03:02:28;11.10;;;5.82;;
25922;SDS011;13725;51.170;4.442;2023-04-10T03:04:57;11.15;;;6.40;;
25922;SDS011;13725;51.170;4.442;2023-04-10T03:07:23;10.52;;;5.88;;
25922;SDS011;13725;51.170;4.442;2023-04-10T03:09:48;8.48;;;6.10;;
25922;SDS011;13725;51.170;4.442;2023-04-10T03:12:14;11.05;;;5.75;;
25922;SDS011;13725;51.170;4.442;2023-04-10T03:14:42;7.28;;;5.57;;
25922;SDS011;13725;51.170;4.442;2023-04-10T03:17:07;9.13;;;5.50;;
25922;SDS011;13725;51.170;4.442;2023-04-10T03:19:34;8.07;;;5.65;;
25922;SDS011;13725;51.170;4.442;2023-04-10T03:22:00;9.63;;;5.82;;
25922;SDS011;13725;51.170;4.442;2023-04-10T03:24:26;9.05;;;5.40;;
25922;SDS011;13725;51.170;4.442;2023-04-10T03:26:53;8.68;;;5.88;;
25922;SDS011;13725;51.170;4.442;2023-04-10T03:29:18;9.02;;;5.78;;
25922;SDS011;13725;51.170;4.442;2023-04-10T03:31:44;9.48;;;5.50;;
25922;SDS011;13725;51.170;4.442;2023-04-10T03:34:10;7.40;;;5.63;;
25922;SDS011;13725;51.170;4.442;2023-04-10T03:36:36;8.85;;;5.70;;
25922;SDS011;13725;51.170;4.442;2023-04-10T03:39:02;7.97;;;5.65;;
25922;SDS011;13725;51.170;4.442;2023-04-10T03:41:28;8.38;;;5.57;;
25922;SDS011;13725;51.170;4.442;2023-04-10T03:43:55;10.70;;;5.78;;
25922;SDS011;13725;51.170;4.442;2023-04-10T03:46:21;9.65;;;6.20;;
25922;SDS011;13725;51.170;4.442;2023-04-10T03:48:47;9.65;;;5.57;;
25922;SDS011;13725;51.170;4.442;2023-04-10T03:51:15;8.35;;;5.78;;
25922;SDS011;13725;51.170;4.442;2023-04-10T03:53:43;9.75;;;5.35;;
25922;SDS011;13725;51.170;4.442;2023-04-10T03:56:13;9.05;;;5.70;;
25922;SDS011;13725;51.170;4.442;2023-04-10T03:58:39;9.38;;;6.00;;
25922;SDS011;13725;51.170;4.442;2023-04-10T04:01:05;9.82;;;6.03;;
25922;SDS011;13725;51.170;4.442;2023-04-10T04:03:39;7.70;;;5.47;;
25922;SDS011;13725;51.170;4.442;2023-04-10T04:06:25;10.70;;;6.28;;
25922;SDS011;13725;51.170;4.442;2023-04-10T04:09:14;8.82;;;5.63;;
25922;SDS011;13725;51.170;4.442;2023-04-10T04:11:58;9.27;;;5.78;;
25922;SDS011;13725;51.170;4.442;2023-04-10T04:14:45;9.75;;;6.40;;
25922;SDS011;13725;51.170;4.442;2023-04-10T04:17:23;10.02;;;6.50;;
25922;SDS011;13725;51.170;4.442;2023-04-10T04:20:07;9.23;;;6.45;;
25922;SDS011;13725;51.170;4.442;2023-04-10T04:22:52;10.05;;;6.20;;
25922;SDS011;13725;51.170;4.442;2023-04-10T04:25:42;11.02;;;5.90;;
25922;SDS011;13725;51.170;4.442;2023-04-10T04:28:23;9.63;;;6.40;;
25922;SDS011;13725;51.170;4.442;2023-04-10T04:30:59;11.73;;;6.93;;
25922;SDS011;13725;51.170;4.442;2023-04-10T04:33:44;12.38;;;7.18;;
25922;SDS011;13725;51.170;4.442;2023-04-10T04:36:30;9.40;;;6.15;;
25922;SDS011;13725;51.170;4.442;2023-04-10T04:39:12;12.70;;;6.22;;
25922;SDS011;13725;51.170;4.442;2023-04-10T04:42:03;12.23;;;6.75;;
25922;SDS011;13725;51.170;4.442;2023-04-10T04:44:39;9.18;;;6.05;;
25922;SDS011;13725;51.170;4.442;2023-04-10T04:47:31;10.30;;;6.73;;
25922;SDS011;13725;51.170;4.442;2023-04-10T04:50:13;11.05;;;6.13;;
25922;SDS011;13725;51.170;4.442;2023-04-10T04:53:05;10.73;;;6.20;;
25922;SDS011;13725;51.170;4.442;2023-04-10T04:55:51;11.07;;;6.72;;
25922;SDS011;13725;51.170;4.442;2023-04-10T04:58:37;10.20;;;6.63;;
25922;SDS011;13725;51.170;4.442;2023-04-10T05:01:10;10.95;;;6.63;;
25922;SDS011;13725;51.170;4.442;2023-04-10T05:04:05;12.30;;;6.53;;
25922;SDS011;13725;51.170;4.442;2023-04-10T05:06:55;9.80;;;6.63;;
25922;SDS011;13725;51.170;4.442;2023-04-10T05:09:46;9.55;;;6.07;;
25922;SDS011;13725;51.170;4.442;2023-04-10T05:12:30;15.63;;;6.85;;
25922;SDS011;13725;51.170;4.442;2023-04-10T05:15:04;11.13;;;7.13;;
25922;SDS011;13725;51.170;4.442;2023-04-10T05:17:53;11.25;;;6.93;;
25922;SDS011;13725;51.170;4.442;2023-04-10T05:20:38;10.60;;;6.22;;
25922;SDS011;13725;51.170;4.442;2023-04-10T05:23:34;11.60;;;6.78;;
25922;SDS011;13725;51.170;4.442;2023-04-10T05:26:15;10.00;;;6.28;;
25922;SDS011;13725;51.170;4.442;2023-04-10T05:29:06;9.48;;;5.80;;
25922;SDS011;13725;51.170;4.442;2023-04-10T05:31:52;10.07;;;6.97;;
25922;SDS011;13725;51.170;4.442;2023-04-10T05:34:40;9.63;;;5.93;;
25922;SDS011;13725;51.170;4.442;2023-04-10T05:37:26;10.25;;;5.82;;
25922;SDS011;13725;51.170;4.442;2023-04-10T05:40:12;12.10;;;6.93;;
25922;SDS011;13725;51.170;4.442;2023-04-10T05:42:54;11.65;;;6.30;;
25922;SDS011;13725;51.170;4.442;2023-04-10T05:45:25;10.13;;;6.03;;
25922;SDS011;13725;51.170;4.442;2023-04-10T05:48:17;13.77;;;6.10;;
25922;SDS011;13725;51.170;4.442;2023-04-10T05:53:40;11.45;;;6.15;;
25922;SDS011;13725;51.170;4.442;2023-04-10T05:56:24;10.00;;;6.47;;
25922;SDS011;13725;51.170;4.442;2023-04-10T05:59:16;10.10;;;6.03;;
25922;SDS011;13725;51.170;4.442;2023-04-10T06:01:56;11.00;;;6.03;;
25922;SDS011;13725;51.170;4.442;2023-04-10T06:04:23;11.02;;;6.03;;
25922;SDS011;13725;51.170;4.442;2023-04-10T06:06:52;9.43;;;6.15;;
25922;SDS011;13725;51.170;4.442;2023-04-10T06:09:17;11.10;;;6.60;;
25922;SDS011;13725;51.170;4.442;2023-04-10T06:11:43;10.57;;;6.35;;
25922;SDS011;13725;51.170;4.442;2023-04-10T06:14:10;8.80;;;5.82;;
25922;SDS011;13725;51.170;4.442;2023-04-10T06:16:40;10.60;;;6.00;;
25922;SDS011;13725;51.170;4.442;2023-04-10T06:19:07;8.93;;;5.80;;
25922;SDS011;13725;51.170;4.442;2023-04-10T06:21:34;10.23;;;6.28;;
25922;SDS011;13725;51.170;4.442;2023-04-10T06:24:00;10.73;;;5.85;;
25922;SDS011;13725;51.170;4.442;2023-04-10T06:26:26;11.52;;;6.65;;
25922;SDS011;13725;51.170;4.442;2023-04-10T06:28:52;10.55;;;6.30;;
25922;SDS011;13725;51.170;4.442;2023-04-10T06:31:18;10.10;;;6.00;;
25922;SDS011;13725;51.170;4.442;2023-04-10T06:33:46;9.90;;;6.13;;
25922;SDS011;13725;51.170;4.442;2023-04-10T06:36:16;8.75;;;5.63;;
25922;SDS011;13725;51.170;4.442;2023-04-10T06:38:46;10.20;;;6.40;;
25922;SDS011;13725;51.170;4.442;2023-04-10T06:41:12;10.55;;;6.18;;
25922;SDS011;13725;51.170;4.442;2023-04-10T06:43:38;10.18;;;6.20;;
25922;SDS011;13725;51.170;4.442;2023-04-10T06:46:04;10.18;;;5.85;;
25922;SDS011;13725;51.170;4.442;2023-04-10T06:48:33;10.20;;;6.18;;
25922;SDS011;13725;51.170;4.442;2023-04-10T06:50:59;8.98;;;5.57;;
25922;SDS011;13725;51.170;4.442;2023-04-10T06:53:25;9.70;;;6.10;;
25922;SDS011;13725;51.170;4.442;2023-04-10T06:55:51;9.38;;;5.70;;
25922;SDS011;13725;51.170;4.442;2023-04-10T06:58:17;9.30;;;6.20;;
25922;SDS011;13725;51.170;4.442;2023-04-10T07:00:43;8.35;;;6.32;;
25922;SDS011;13725;51.170;4.442;2023-04-10T07:03:10;9.25;;;6.13;;
25922;SDS011;13725;51.170;4.442;2023-04-10T07:05:35;8.68;;;5.55;;
25922;SDS011;13725;51.170;4.442;2023-04-10T07:08:01;9.80;;;5.80;;
25922;SDS011;13725;51.170;4.442;2023-04-10T07:10:27;10.50;;;6.20;;
25922;SDS011;13725;51.170;4.442;2023-04-10T07:12:53;9.77;;;5.63;;
25922;SDS011;13725;51.170;4.442;2023-04-10T07:15:19;9.05;;;5.93;;
25922;SDS011;13725;51.170;4.442;2023-04-10T07:17:46;8.35;;;5.82;;
25922;SDS011;13725;51.170;4.442;2023-04-10T07:20:12;10.85;;;5.85;;
25922;SDS011;13725;51.170;4.442;2023-04-10T07:22:38;8.50;;;5.90;;
25922;SDS011;13725;51.170;4.442;2023-04-10T07:25:03;11.68;;;5.60;;
25922;SDS011;13725;51.170;4.442;2023-04-10T07:27:31;8.05;;;5.15;;
25922;SDS011;13725;51.170;4.442;2023-04-10T07:29:56;7.13;;;5.30;;
25922;SDS011;13725;51.170;4.442;2023-04-10T07:32:22;8.25;;;5.53;;
25922;SDS011;13725;51.170;4.442;2023-04-10T07:34:49;7.63;;;5.28;;
25922;SDS011;13725;51.170;4.442;2023-04-10T07:37:15;8.85;;;5.35;;
25922;SDS011;13725;51.170;4.442;2023-04-10T07:39:42;6.97;;;5.32;;
25922;SDS011;13725;51.170;4.442;2023-04-10T07:42:10;7.85;;;5.07;;
25922;SDS011;13725;51.170;4.442;2023-04-10T07:44:35;6.68;;;4.65;;
25922;SDS011;13725;51.170;4.442;2023-04-10T07:47:02;8.07;;;5.20;;
25922;SDS011;13725;51.170;4.442;2023-04-10T07:49:28;8.57;;;5.40;;
25922;SDS011;13725;51.170;4.442;2023-04-10T07:51:53;8.65;;;5.47;;
25922;SDS011;13725;51.170;4.442;2023-04-10T07:54:19;9.32;;;5.57;;
25922;SDS011;13725;51.170;4.442;2023-04-10T07:56:45;7.63;;;5.38;;
25922;SDS011;13725;51.170;4.442;2023-04-10T07:59:11;8.80;;;4.90;;
25922;SDS011;13725;51.170;4.442;2023-04-10T08:01:37;8.77;;;5.18;;
25922;SDS011;13725;51.170;4.442;2023-04-10T08:04:02;8.07;;;5.05;;
25922;SDS011;13725;51.170;4.442;2023-04-10T08:06:28;7.20;;;4.82;;
25922;SDS011;13725;51.170;4.442;2023-04-10T08:08:55;6.68;;;4.70;;
25922;SDS011;13725;51.170;4.442;2023-04-10T08:11:34;7.43;;;5.15;;
25922;SDS011;13725;51.170;4.442;2023-04-10T08:14:01;6.97;;;4.65;;
25922;SDS011;13725;51.170;4.442;2023-04-10T08:16:31;9.07;;;4.72;;
25922;SDS011;13725;51.170;4.442;2023-04-10T08:18:58;5.80;;;4.60;;
25922;SDS011;13725;51.170;4.442;2023-04-10T08:21:25;6.85;;;4.72;;
25922;SDS011;13725;51.170;4.442;2023-04-10T08:23:53;7.78;;;5.45;;
25922;SDS011;13725;51.170;4.442;2023-04-10T08:26:19;7.70;;;4.45;;
25922;SDS011;13725;51.170;4.442;2023-04-10T08:28:46;7.53;;;5.05;;
25922;SDS011;13725;51.170;4.442;2023-04-10T08:31:16;7.30;;;4.70;;
25922;SDS011;13725;51.170;4.442;2023-04-10T08:33:42;6.40;;;4.78;;
25922;SDS011;13725;51.170;4.442;2023-04-10T08:36:08;7.00;;;4.63;;
25922;SDS011;13725;51.170;4.442;2023-04-10T08:38:35;7.18;;;4.63;;
25922;SDS011;13725;51.170;4.442;2023-04-10T08:41:01;6.32;;;4.35;;
25922;SDS011;13725;51.170;4.442;2023-04-10T08:43:26;6.68;;;4.65;;
25922;SDS011;13725;51.170;4.442;2023-04-10T08:45:53;6.35;;;4.82;;
25922;SDS011;13725;51.170;4.442;2023-04-10T08:48:20;8.63;;;4.45;;
25922;SDS011;13725;51.170;4.442;2023-04-10T08:50:49;9.20;;;5.38;;
25922;SDS011;13725;51.170;4.442;2023-04-10T08:53:15;9.70;;;5.00;;
25922;SDS011;13725;51.170;4.442;2023-04-10T08:55:44;6.63;;;4.65;;
25922;SDS011;13725;51.170;4.442;2023-04-10T08:58:10;8.55;;;4.50;;
25922;SDS011;13725;51.170;4.442;2023-04-10T09:00:38;8.25;;;5.00;;
25922;SDS011;13725;51.170;4.442;2023-04-10T09:03:07;5.88;;;4.80;;
25922;SDS011;13725;51.170;4.442;2023-04-10T09:05:35;9.90;;;5.00;;
25922;SDS011;13725;51.170;4.442;2023-04-10T09:08:02;7.63;;;4.80;;
25922;SDS011;13725;51.170;4.442;2023-04-10T09:10:29;8.00;;;4.88;;
25922;SDS011;13725;51.170;4.442;2023-04-10T09:12:55;5.85;;;4.72;;
25922;SDS011;13725;51.170;4.442;2023-04-10T09:15:21;8.23;;;4.82;;
25922;SDS011;13725;51.170;4.442;2023-04-10T09:17:53;7.10;;;4.65;;
25922;SDS011;13725;51.170;4.442;2023-04-10T09:20:24;6.85;;;4.72;;
25922;SDS011;13725;51.170;4.442;2023-04-10T09:22:52;6.30;;;4.78;;
25922;SDS011;13725;51.170;4.442;2023-04-10T09:25:30;5.95;;;4.65;;
25922;SDS011;13725;51.170;4.442;2023-04-10T09:28:02;7.05;;;4.20;;
25922;SDS011;13725;51.170;4.442;2023-04-10T09:30:37;8.80;;;4.43;;
25922;SDS011;13725;51.170;4.442;2023-04-10T09:33:21;5.90;;;3.92;;
25922;SDS011;13725;51.170;4.442;2023-04-10T09:35:52;8.75;;;4.55;;
25922;SDS011;13725;51.170;4.442;2023-04-10T09:38:18;7.60;;;4.57;;
25922;SDS011;13725;51.170;4.442;2023-04-10T09:40:46;6.60;;;4.63;;
25922;SDS011;13725;51.170;4.442;2023-04-10T09:43:16;9.40;;;4.28;;
25922;SDS011;13725;51.170;4.442;2023-04-10T09:45:46;7.22;;;4.57;;
25922;SDS011;13725;51.170;4.442;2023-04-10T09:48:13;6.78;;;4.07;;
25922;SDS011;13725;51.170;4.442;2023-04-10T09:50:39;5.25;;;4.18;;
25922;SDS011;13725;51.170;4.442;2023-04-10T09:53:15;5.82;;;4.22;;
25922;SDS011;13725;51.170;4.442;2023-04-10T09:55:48;4.78;;;3.80;;
25922;SDS011;13725;51.170;4.442;2023-04-10T09:58:15;5.53;;;4.50;;
25922;SDS011;13725;51.170;4.442;2023-04-10T10:00:42;9.77;;;4.03;;
25922;SDS011;13725;51.170;4.442;2023-04-10T10:03:14;5.88;;;4.60;;
25922;SDS011;13725;51.170;4.442;2023-04-10T10:05:42;6.35;;;4.30;;
25922;SDS011;13725;51.170;4.442;2023-04-10T10:08:10;6.78;;;4.55;;
25922;SDS011;13725;51.170;4.442;2023-04-10T10:10:55;7.38;;;4.30;;
25922;SDS011;13725;51.170;4.442;2023-04-10T10:13:25;6.15;;;4.30;;
25922;SDS011;13725;51.170;4.442;2023-04-10T10:16:02;9.07;;;4.47;;
25922;SDS011;13725;51.170;4.442;2023-04-10T10:19:11;9.18;;;4.22;;
25922;SDS011;13725;51.170;4.442;2023-04-10T10:21:32;10.15;;;3.90;;
25922;SDS011;13725;51.170;4.442;2023-04-10T10:24:00;7.22;;;4.20;;
25922;SDS011;13725;51.170;4.442;2023-04-10T10:26:31;7.97;;;4.05;;
25922;SDS011;13725;51.170;4.442;2023-04-10T10:29:02;6.85;;;4.28;;
25922;SDS011;13725;51.170;4.442;2023-04-10T10:31:29;6.68;;;4.30;;
25922;SDS011;13725;51.170;4.442;2023-04-10T10:34:01;7.47;;;4.32;;
25922;SDS011;13725;51.170;4.442;2023-04-10T10:36:29;6.13;;;4.20;;
25922;SDS011;13725;51.170;4.442;2023-04-10T10:39:21;7.13;;;4.13;;
25922;SDS011;13725;51.170;4.442;2023-04-10T10:44:41;5.50;;;3.90;;
25922;SDS011;13725;51.170;4.442;2023-04-10T10:47:13;5.70;;;3.67;;
25922;SDS011;13725;51.170;4.442;2023-04-10T10:49:53;4.53;;;3.53;;
25922;SDS011;13725;51.170;4.442;2023-04-10T10:52:43;8.80;;;4.18;;
25922;SDS011;13725;51.170;4.442;2023-04-10T10:57:54;4.47;;;3.20;;
25922;SDS011;13725;51.170;4.442;2023-04-10T11:00:22;5.03;;;3.85;;
25922;SDS011;13725;51.170;4.442;2023-04-10T11:05:52;5.05;;;3.55;;
25922;SDS011;13725;51.170;4.442;2023-04-10T11:11:18;5.00;;;3.70;;
25922;SDS011;13725;51.170;4.442;2023-04-10T11:16:17;4.55;;;3.88;;
25922;SDS011;13725;51.170;4.442;2023-04-10T11:28:58;4.13;;;3.45;;
25922;SDS011;13725;51.170;4.442;2023-04-10T11:31:24;5.75;;;3.60;;
25922;SDS011;13725;51.170;4.442;2023-04-10T11:36:23;4.20;;;3.00;;
25922;SDS011;13725;51.170;4.442;2023-04-10T11:39:02;5.32;;;3.08;;
25922;SDS011;13725;51.170;4.442;2023-04-10T11:41:36;3.17;;;2.65;;
25922;SDS011;13725;51.170;4.442;2023-04-10T11:44:04;5.00;;;2.50;;
25922;SDS011;13725;51.170;4.442;2023-04-10T11:46:34;3.13;;;2.45;;
25922;SDS011;13725;51.170;4.442;2023-04-10T11:49:02;4.82;;;2.65;;
25922;SDS011;13725;51.170;4.442;2023-04-10T11:51:30;4.40;;;2.38;;
25922;SDS011;13725;51.170;4.442;2023-04-10T11:54:09;4.20;;;2.17;;
25922;SDS011;13725;51.170;4.442;2023-04-10T11:56:40;2.67;;;2.47;;
25922;SDS011;13725;51.170;4.442;2023-04-10T11:59:08;3.08;;;2.33;;
25922;SDS011;13725;51.170;4.442;2023-04-10T12:01:40;2.85;;;2.45;;
25922;SDS011;13725;51.170;4.442;2023-04-10T12:04:15;2.67;;;2.17;;
25922;SDS011;13725;51.170;4.442;2023-04-10T12:06:43;4.25;;;2.40;;
25922;SDS011;13725;51.170;4.442;2023-04-10T12:09:16;2.55;;;2.30;;
25922;SDS011;13725;51.170;4.442;2023-04-10T12:11:56;3.47;;;2.47;;
25922;SDS011;13725;51.170;4.442;2023-04-10T12:14:31;3.75;;;2.08;;
25922;SDS011;13725;51.170;4.442;2023-04-10T12:17:05;4.15;;;2.20;;
25922;SDS011;13725;51.170;4.442;2023-04-10T12:19:33;5.70;;;2.40;;
25922;SDS011;13725;51.170;4.442;2023-04-10T12:22:00;4.13;;;2.42;;
25922;SDS011;13725;51.170;4.442;2023-04-10T12:27:22;2.50;;;2.20;;
25922;SDS011;13725;51.170;4.442;2023-04-10T12:29:52;3.42;;;2.45;;
25922;SDS011;13725;51.170;4.442;2023-04-10T12:32:20;3.08;;;2.40;;
25922;SDS011;13725;51.170;4.442;2023-04-10T12:34:50;2.42;;;2.20;;
25922;SDS011;13725;51.170;4.442;2023-04-10T12:37:16;2.88;;;2.17;;
25922;SDS011;13725;51.170;4.442;2023-04-10T12:39:42;2.75;;;1.98;;
25922;SDS011;13725;51.170;4.442;2023-04-10T12:42:15;3.33;;;2.40;;
25922;SDS011;13725;51.170;4.442;2023-04-10T12:47:46;5.80;;;2.67;;
25922;SDS011;13725;51.170;4.442;2023-04-10T12:50:17;4.55;;;2.50;;
25922;SDS011;13725;51.170;4.442;2023-04-10T12:52:45;4.38;;;2.40;;
25922;SDS011;13725;51.170;4.442;2023-04-10T12:55:30;4.70;;;3.08;;
25922;SDS011;13725;51.170;4.442;2023-04-10T12:57:56;4.03;;;2.72;;
25922;SDS011;13725;51.170;4.442;2023-04-10T13:00:22;4.10;;;3.05;;
25922;SDS011;13725;51.170;4.442;2023-04-10T13:02:49;5.05;;;3.10;;
25922;SDS011;13725;51.170;4.442;2023-04-10T13:05:15;5.53;;;3.38;;
25922;SDS011;13725;51.170;4.442;2023-04-10T13:07:41;5.18;;;3.40;;
25922;SDS011;13725;51.170;4.442;2023-04-10T13:10:07;4.18;;;2.80;;
25922;SDS011;13725;51.170;4.442;2023-04-10T13:12:33;5.40;;;3.45;;
25922;SDS011;13725;51.170;4.442;2023-04-10T13:15:00;4.88;;;3.30;;
25922;SDS011;13725;51.170;4.442;2023-04-10T13:17:26;6.28;;;4.43;;
25922;SDS011;13725;51.170;4.442;2023-04-10T13:19:52;7.80;;;3.70;;
25922;SDS011;13725;51.170;4.442;2023-04-10T13:22:18;6.43;;;3.60;;
25922;SDS011;13725;51.170;4.442;2023-04-10T13:24:44;6.47;;;3.30;;
25922;SDS011;13725;51.170;4.442;2023-04-10T13:27:10;5.03;;;3.60;;
25922;SDS011;13725;51.170;4.442;2023-04-10T13:29:39;6.72;;;3.85;;
25922;SDS011;13725;51.170;4.442;2023-04-10T13:32:06;8.20;;;4.60;;
25922;SDS011;13725;51.170;4.442;2023-04-10T13:34:32;6.72;;;4.30;;
25922;SDS011;13725;51.170;4.442;2023-04-10T13:36:58;6.72;;;4.30;;
25922;SDS011;13725;51.170;4.442;2023-04-10T13:39:25;9.05;;;4.88;;
25922;SDS011;13725;51.170;4.442;2023-04-10T13:41:52;7.60;;;4.50;;
25922;SDS011;13725;51.170;4.442;2023-04-10T13:44:18;8.18;;;4.95;;
25922;SDS011;13725;51.170;4.442;2023-04-10T13:46:43;6.70;;;3.90;;
25922;SDS011;13725;51.170;4.442;2023-04-10T13:49:09;6.57;;;4.47;;
25922;SDS011;13725;51.170;4.442;2023-04-10T13:51:36;6.43;;;4.28;;
25922;SDS011;13725;51.170;4.442;2023-04-10T13:54:02;5.75;;;4.13;;
25922;SDS011;13725;51.170;4.442;2023-04-10T13:56:29;6.97;;;4.13;;
25922;SDS011;13725;51.170;4.442;2023-04-10T13:58:54;6.93;;;4.38;;
25922;SDS011;13725;51.170;4.442;2023-04-10T14:01:20;4.93;;;3.85;;
25922;SDS011;13725;51.170;4.442;2023-04-10T14:03:46;5.05;;;3.60;;
25922;SDS011;13725;51.170;4.442;2023-04-10T14:06:12;5.60;;;3.60;;
25922;SDS011;13725;51.170;4.442;2023-04-10T14:08:38;3.85;;;3.35;;
25922;SDS011;13725;51.170;4.442;2023-04-10T14:11:04;5.35;;;3.65;;
25922;SDS011;13725;51.170;4.442;2023-04-10T14:13:30;4.45;;;3.17;;
25922;SDS011;13725;51.170;4.442;2023-04-10T14:15:56;3.65;;;3.28;;
25922;SDS011;13725;51.170;4.442;2023-04-10T14:18:21;3.67;;;3.17;;
25922;SDS011;13725;51.170;4.442;2023-04-10T14:20:47;5.20;;;3.25;;
25922;SDS011;13725;51.170;4.442;2023-04-10T14:23:13;4.60;;;3.20;;
25922;SDS011;13725;51.170;4.442;2023-04-10T14:25:45;3.65;;;3.28;;
25922;SDS011;13725;51.170;4.442;2023-04-10T14:28:12;5.57;;;3.42;;
25922;SDS011;13725;51.170;4.442;2023-04-10T14:30:48;5.30;;;3.30;;
25922;SDS011;13725;51.170;4.442;2023-04-10T14:33:17;6.78;;;3.20;;
25922;SDS011;13725;51.170;4.442;2023-04-10T14:35:44;3.42;;;2.80;;
25922;SDS011;13725;51.170;4.442;2023-04-10T14:38:10;6.10;;;3.20;;
25922;SDS011;13725;51.170;4.442;2023-04-10T14:40:36;6.32;;;3.10;;
25922;SDS011;13725;51.170;4.442;2023-04-10T14:43:02;4.53;;;3.00;;
25922;SDS011;13725;51.170;4.442;2023-04-10T14:45:28;6.47;;;3.15;;
25922;SDS011;13725;51.170;4.442;2023-04-10T14:47:54;5.00;;;3.00;;
25922;SDS011;13725;51.170;4.442;2023-04-10T14:50:20;4.43;;;3.03;;
25922;SDS011;13725;51.170;4.442;2023-04-10T14:52:46;6.60;;;3.03;;
25922;SDS011;13725;51.170;4.442;2023-04-10T14:55:12;5.35;;;3.00;;
25922;SDS011;13725;51.170;4.442;2023-04-10T14:57:37;8.48;;;4.43;;
25922;SDS011;13725;51.170;4.442;2023-04-10T15:00:03;4.75;;;3.25;;
25922;SDS011;13725;51.170;4.442;2023-04-10T15:02:29;4.40;;;2.85;;
25922;SDS011;13725;51.170;4.442;2023-04-10T15:04:55;4.25;;;2.67;;
25922;SDS011;13725;51.170;4.442;2023-04-10T15:07:21;6.35;;;3.40;;
25922;SDS011;13725;51.170;4.442;2023-04-10T15:09:48;5.25;;;3.38;;
25922;SDS011;13725;51.170;4.442;2023-04-10T15:12:14;5.43;;;3.47;;
25922;SDS011;13725;51.170;4.442;2023-04-10T15:14:40;8.30;;;4.20;;
25922;SDS011;13725;51.170;4.442;2023-04-10T15:17:06;5.15;;;3.60;;
25922;SDS011;13725;51.170;4.442;2023-04-10T15:19:32;5.43;;;3.60;;
25922;SDS011;13725;51.170;4.442;2023-04-10T15:21:57;4.82;;;3.40;;
25922;SDS011;13725;51.170;4.442;2023-04-10T15:24:23;5.90;;;4.00;;
25922;SDS011;13725;51.170;4.442;2023-04-10T15:26:50;6.03;;;3.90;;
25922;SDS011;13725;51.170;4.442;2023-04-10T15:29:17;5.05;;;3.17;;
25922;SDS011;13725;51.170;4.442;2023-04-10T15:31:43;5.10;;;2.88;;
25922;SDS011;13725;51.170;4.442;2023-04-10T15:34:09;4.80;;;2.78;;
25922;SDS011;13725;51.170;4.442;2023-04-10T15:36:34;4.28;;;3.10;;
25922;SDS011;13725;51.170;4.442;2023-04-10T15:39:00;5.57;;;3.03;;
25922;SDS011;13725;51.170;4.442;2023-04-10T15:41:27;4.40;;;3.50;;
25922;SDS011;13725;51.170;4.442;2023-04-10T15:43:55;7.50;;;3.60;;
25922;SDS011;13725;51.170;4.442;2023-04-10T15:46:21;6.82;;;3.78;;
25922;SDS011;13725;51.170;4.442;2023-04-10T15:48:47;5.43;;;3.80;;